Ingwavuma Airport


Codes: FAIV/
Name: Ingwavuma Airport
City: Ingwavuma
Country: South Africa
Elevation: 2100 ft.

Photos at Ingwavuma Airport


   Photos courtesy of SpottingLog. You can add your own sightings and photos by signing up for a free trial today.



No photos found.

Weather at Ingwavuma Airport


Time (UTC)DescriptionTempratureWindCloud coverageVisibilityPressureHumidity
16-Jun-2024 00:00Clear Sky8°C4 mph, SW0%10000m1025hPa86%
16-Jun-2024 03:00Clear Sky9°C4 mph, SW2%10000m1025hPa87%
16-Jun-2024 06:00Clear Sky11°C4 mph, W8%10000m1026hPa74%
16-Jun-2024 09:00Overcast Clouds19°C4 mph, S87%10000m1025hPa49%
16-Jun-2024 12:00Broken Clouds21°C4 mph, SE51%10000m1023hPa41%
16-Jun-2024 15:00Clear Sky16°C4 mph, E5%10000m1023hPa63%
16-Jun-2024 18:00Few Clouds13°C2 mph, E23%10000m1025hPa94%
16-Jun-2024 21:00Few Clouds12°C2 mph, NW19%10000m1026hPa95%
17-Jun-2024 00:00Few Clouds11°C2 mph, NW19%10000m1025hPa97%
17-Jun-2024 03:00Few Clouds11°C2 mph, NW12%10000m1024hPa97%
17-Jun-2024 06:00Clear Sky13°C2 mph, NW8%10000m1025hPa86%
17-Jun-2024 09:00Clear Sky19°C7 mph, N2%10000m1024hPa54%
17-Jun-2024 12:00Clear Sky22°C9 mph, N3%10000m1019hPa37%
17-Jun-2024 15:00Clear Sky17°C7 mph, NE2%10000m1019hPa55%
17-Jun-2024 18:00Clear Sky12°C4 mph, NE1%10000m1020hPa83%
17-Jun-2024 21:00Clear Sky11°C4 mph, N0%10000m1020hPa95%
18-Jun-2024 00:00Clear Sky10°C4 mph, NW4%10000m1019hPa94%
18-Jun-2024 03:00Clear Sky9°C7 mph, NW6%10000m1018hPa87%
18-Jun-2024 06:00Clear Sky12°C7 mph, NW5%10000m1018hPa62%
18-Jun-2024 09:00Clear Sky21°C7 mph, NW1%10000m1017hPa29%
18-Jun-2024 12:00Clear Sky27°C2 mph, W0%10000m1013hPa18%
18-Jun-2024 15:00Clear Sky20°C4 mph, E0%10000m1014hPa32%
18-Jun-2024 18:00Clear Sky16°C2 mph, NW0%10000m1016hPa42%
18-Jun-2024 21:00Clear Sky15°C2 mph, W0%10000m1017hPa45%
19-Jun-2024 00:00Clear Sky13°C2 mph, SW0%10000m1017hPa50%
19-Jun-2024 03:00Clear Sky12°C2 mph, SW0%10000m1017hPa52%
19-Jun-2024 06:00Clear Sky14°C2 mph, W0%10000m1019hPa46%
19-Jun-2024 09:00Clear Sky23°C2 mph, N0%10000m1018hPa30%
19-Jun-2024 12:00Clear Sky25°C4 mph, NE0%10000m1015hPa23%
19-Jun-2024 15:00Clear Sky19°C4 mph, NE1%10000m1015hPa45%
19-Jun-2024 18:00Clear Sky14°C2 mph, E1%10000m1019hPa60%
19-Jun-2024 21:00Clear Sky12°C2 mph, S0%10000m1021hPa66%
20-Jun-2024 00:00Clear Sky11°C4 mph, S0%10000m1022hPa78%
20-Jun-2024 03:00Clear Sky11°C4 mph, SW4%10000m1024hPa94%
20-Jun-2024 06:00Few Clouds14°C4 mph, SW24%10000m1025hPa82%
20-Jun-2024 09:00Overcast Clouds19°C4 mph, S89%10000m1025hPa57%
20-Jun-2024 12:00Overcast Clouds20°C0 mph, SW92%10000m1023hPa50%
20-Jun-2024 15:00Broken Clouds17°C2 mph, E53%10000m1023hPa63%
20-Jun-2024 18:00Scattered Clouds14°C2 mph, E38%10000m1025hPa78%
20-Jun-2024 21:00Clear Sky13°C2 mph, N6%10000m1025hPa93%